sensor_id;sensor_type;location;lat;lon;timestamp;P1;durP1;ratioP1;P2;durP2;ratioP2
8088;SDS011;57635;49.194;12.104;2023-05-17T00:00:06;4.20;;;3.07;;
8088;SDS011;57635;49.194;12.104;2023-05-17T00:02:35;3.10;;;2.57;;
8088;SDS011;57635;49.194;12.104;2023-05-17T00:05:03;2.93;;;2.70;;
8088;SDS011;57635;49.194;12.104;2023-05-17T00:07:31;3.03;;;2.83;;
8088;SDS011;57635;49.194;12.104;2023-05-17T00:10:00;3.30;;;2.30;;
8088;SDS011;57635;49.194;12.104;2023-05-17T00:12:28;2.50;;;2.30;;
8088;SDS011;57635;49.194;12.104;2023-05-17T00:14:55;3.20;;;2.70;;
8088;SDS011;57635;49.194;12.104;2023-05-17T00:17:23;7.50;;;2.80;;
8088;SDS011;57635;49.194;12.104;2023-05-17T00:19:51;3.10;;;2.50;;
8088;SDS011;57635;49.194;12.104;2023-05-17T00:22:18;3.60;;;2.70;;
8088;SDS011;57635;49.194;12.104;2023-05-17T00:24:46;4.37;;;2.40;;
8088;SDS011;57635;49.194;12.104;2023-05-17T00:27:15;2.90;;;2.67;;
8088;SDS011;57635;49.194;12.104;2023-05-17T00:29:43;5.23;;;3.20;;
8088;SDS011;57635;49.194;12.104;2023-05-17T00:32:10;3.17;;;2.67;;
8088;SDS011;57635;49.194;12.104;2023-05-17T00:34:38;4.63;;;2.20;;
8088;SDS011;57635;49.194;12.104;2023-05-17T00:37:05;5.83;;;2.60;;
8088;SDS011;57635;49.194;12.104;2023-05-17T00:39:33;2.73;;;2.53;;
8088;SDS011;57635;49.194;12.104;2023-05-17T00:42:01;3.73;;;3.43;;
8088;SDS011;57635;49.194;12.104;2023-05-17T00:44:30;2.83;;;2.63;;
8088;SDS011;57635;49.194;12.104;2023-05-17T00:46:58;5.23;;;3.17;;
8088;SDS011;57635;49.194;12.104;2023-05-17T00:49:26;3.10;;;2.80;;
8088;SDS011;57635;49.194;12.104;2023-05-17T00:51:53;2.43;;;2.23;;
8088;SDS011;57635;49.194;12.104;2023-05-17T00:54:21;8.13;;;2.77;;
8088;SDS011;57635;49.194;12.104;2023-05-17T00:56:49;2.70;;;2.40;;
8088;SDS011;57635;49.194;12.104;2023-05-17T00:59:16;2.80;;;2.57;;
8088;SDS011;57635;49.194;12.104;2023-05-17T01:01:45;2.63;;;2.37;;
8088;SDS011;57635;49.194;12.104;2023-05-17T01:04:13;8.57;;;2.83;;
8088;SDS011;57635;49.194;12.104;2023-05-17T01:06:41;2.53;;;2.27;;
8088;SDS011;57635;49.194;12.104;2023-05-17T01:09:09;3.03;;;2.80;;
8088;SDS011;57635;49.194;12.104;2023-05-17T01:11:38;3.40;;;3.10;;
8088;SDS011;57635;49.194;12.104;2023-05-17T01:14:12;2.77;;;2.57;;
8088;SDS011;57635;49.194;12.104;2023-05-17T01:16:50;3.43;;;2.63;;
8088;SDS011;57635;49.194;12.104;2023-05-17T01:19:27;5.97;;;2.57;;
8088;SDS011;57635;49.194;12.104;2023-05-17T01:22:09;4.37;;;2.33;;
8088;SDS011;57635;49.194;12.104;2023-05-17T01:24:44;3.37;;;2.47;;
8088;SDS011;57635;49.194;12.104;2023-05-17T01:27:18;3.50;;;2.07;;
8088;SDS011;57635;49.194;12.104;2023-05-17T01:29:47;2.60;;;2.40;;
8088;SDS011;57635;49.194;12.104;2023-05-17T01:32:15;7.37;;;2.60;;
8088;SDS011;57635;49.194;12.104;2023-05-17T01:34:44;2.90;;;2.67;;
8088;SDS011;57635;49.194;12.104;2023-05-17T01:37:11;3.93;;;2.60;;
8088;SDS011;57635;49.194;12.104;2023-05-17T01:39:39;3.50;;;2.33;;
8088;SDS011;57635;49.194;12.104;2023-05-17T01:42:10;2.40;;;2.30;;
8088;SDS011;57635;49.194;12.104;2023-05-17T01:44:44;3.40;;;1.83;;
8088;SDS011;57635;49.194;12.104;2023-05-17T01:47:17;3.23;;;1.80;;
8088;SDS011;57635;49.194;12.104;2023-05-17T01:49:47;1.90;;;1.80;;
8088;SDS011;57635;49.194;12.104;2023-05-17T01:52:23;5.13;;;2.40;;
8088;SDS011;57635;49.194;12.104;2023-05-17T01:54:53;3.17;;;2.20;;
8088;SDS011;57635;49.194;12.104;2023-05-17T01:57:24;1.83;;;1.60;;
8088;SDS011;57635;49.194;12.104;2023-05-17T01:59:56;3.07;;;2.70;;
8088;SDS011;57635;49.194;12.104;2023-05-17T02:02:26;2.53;;;2.30;;
8088;SDS011;57635;49.194;12.104;2023-05-17T02:04:54;1.90;;;1.80;;
8088;SDS011;57635;49.194;12.104;2023-05-17T02:07:21;2.33;;;2.07;;
8088;SDS011;57635;49.194;12.104;2023-05-17T02:09:49;2.77;;;1.80;;
8088;SDS011;57635;49.194;12.104;2023-05-17T02:12:17;3.10;;;1.77;;
8088;SDS011;57635;49.194;12.104;2023-05-17T02:14:44;3.83;;;2.37;;
8088;SDS011;57635;49.194;12.104;2023-05-17T02:17:13;2.13;;;1.73;;
8088;SDS011;57635;49.194;12.104;2023-05-17T02:19:41;2.40;;;2.20;;
8088;SDS011;57635;49.194;12.104;2023-05-17T02:22:09;2.13;;;2.03;;
8088;SDS011;57635;49.194;12.104;2023-05-17T02:24:37;5.67;;;1.97;;
8088;SDS011;57635;49.194;12.104;2023-05-17T02:27:04;2.37;;;2.20;;
8088;SDS011;57635;49.194;12.104;2023-05-17T02:29:33;3.23;;;2.40;;
8088;SDS011;57635;49.194;12.104;2023-05-17T02:32:01;4.10;;;2.10;;
8088;SDS011;57635;49.194;12.104;2023-05-17T02:34:30;2.97;;;1.70;;
8088;SDS011;57635;49.194;12.104;2023-05-17T02:36:57;3.03;;;2.23;;
8088;SDS011;57635;49.194;12.104;2023-05-17T02:39:25;3.43;;;1.77;;
8088;SDS011;57635;49.194;12.104;2023-05-17T02:41:52;1.80;;;1.70;;
8088;SDS011;57635;49.194;12.104;2023-05-17T02:44:20;3.73;;;2.00;;
8088;SDS011;57635;49.194;12.104;2023-05-17T02:46:48;3.20;;;1.93;;
8088;SDS011;57635;49.194;12.104;2023-05-17T02:49:15;1.87;;;1.77;;
8088;SDS011;57635;49.194;12.104;2023-05-17T02:51:44;5.57;;;2.13;;
8088;SDS011;57635;49.194;12.104;2023-05-17T02:54:12;4.17;;;2.03;;
8088;SDS011;57635;49.194;12.104;2023-05-17T02:56:39;2.70;;;2.13;;
8088;SDS011;57635;49.194;12.104;2023-05-17T02:59:07;4.20;;;2.43;;
8088;SDS011;57635;49.194;12.104;2023-05-17T03:01:34;3.37;;;1.80;;
8088;SDS011;57635;49.194;12.104;2023-05-17T03:04:02;1.93;;;1.83;;
8088;SDS011;57635;49.194;12.104;2023-05-17T03:06:30;4.03;;;2.20;;
8088;SDS011;57635;49.194;12.104;2023-05-17T03:09:01;2.73;;;2.30;;
8088;SDS011;57635;49.194;12.104;2023-05-17T03:11:28;1.83;;;1.73;;
8088;SDS011;57635;49.194;12.104;2023-05-17T03:13:56;1.70;;;1.60;;
8088;SDS011;57635;49.194;12.104;2023-05-17T03:16:24;2.00;;;1.70;;
8088;SDS011;57635;49.194;12.104;2023-05-17T03:18:52;2.00;;;1.80;;
8088;SDS011;57635;49.194;12.104;2023-05-17T03:21:19;4.60;;;1.90;;
8088;SDS011;57635;49.194;12.104;2023-05-17T03:23:47;6.33;;;2.40;;
8088;SDS011;57635;49.194;12.104;2023-05-17T03:26:16;4.23;;;1.93;;
8088;SDS011;57635;49.194;12.104;2023-05-17T03:28:44;2.00;;;1.90;;
8088;SDS011;57635;49.194;12.104;2023-05-17T03:31:12;2.70;;;1.93;;
8088;SDS011;57635;49.194;12.104;2023-05-17T03:33:40;4.73;;;2.30;;
8088;SDS011;57635;49.194;12.104;2023-05-17T03:36:07;4.97;;;2.40;;
8088;SDS011;57635;49.194;12.104;2023-05-17T03:38:35;1.80;;;1.70;;
8088;SDS011;57635;49.194;12.104;2023-05-17T03:41:03;1.93;;;1.80;;
8088;SDS011;57635;49.194;12.104;2023-05-17T03:43:32;1.93;;;1.73;;
8088;SDS011;57635;49.194;12.104;2023-05-17T03:46:00;3.03;;;1.97;;
8088;SDS011;57635;49.194;12.104;2023-05-17T03:48:27;5.20;;;2.60;;
8088;SDS011;57635;49.194;12.104;2023-05-17T03:50:55;5.37;;;2.30;;
8088;SDS011;57635;49.194;12.104;2023-05-17T03:53:23;4.43;;;2.67;;
8088;SDS011;57635;49.194;12.104;2023-05-17T03:55:50;2.30;;;2.07;;
8088;SDS011;57635;49.194;12.104;2023-05-17T03:58:18;4.27;;;2.07;;
8088;SDS011;57635;49.194;12.104;2023-05-17T04:00:47;3.93;;;2.40;;
8088;SDS011;57635;49.194;12.104;2023-05-17T04:03:16;3.77;;;2.17;;
8088;SDS011;57635;49.194;12.104;2023-05-17T04:05:45;2.67;;;2.47;;
8088;SDS011;57635;49.194;12.104;2023-05-17T04:08:13;4.17;;;2.67;;
8088;SDS011;57635;49.194;12.104;2023-05-17T04:10:40;4.30;;;2.23;;
8088;SDS011;57635;49.194;12.104;2023-05-17T04:13:08;2.30;;;2.10;;
8088;SDS011;57635;49.194;12.104;2023-05-17T04:15:35;2.33;;;2.13;;
8088;SDS011;57635;49.194;12.104;2023-05-17T04:18:05;2.93;;;2.40;;
8088;SDS011;57635;49.194;12.104;2023-05-17T04:20:33;2.13;;;2.00;;
8088;SDS011;57635;49.194;12.104;2023-05-17T04:23:00;4.87;;;2.70;;
8088;SDS011;57635;49.194;12.104;2023-05-17T04:25:28;3.43;;;2.43;;
8088;SDS011;57635;49.194;12.104;2023-05-17T04:27:56;4.90;;;2.53;;
8088;SDS011;57635;49.194;12.104;2023-05-17T04:30:24;2.50;;;2.30;;
8088;SDS011;57635;49.194;12.104;2023-05-17T04:32:51;3.40;;;2.30;;
8088;SDS011;57635;49.194;12.104;2023-05-17T04:35:20;2.50;;;2.30;;
8088;SDS011;57635;49.194;12.104;2023-05-17T04:37:48;2.53;;;2.33;;
8088;SDS011;57635;49.194;12.104;2023-05-17T04:40:16;7.07;;;3.03;;
8088;SDS011;57635;49.194;12.104;2023-05-17T04:42:43;1.97;;;1.97;;
8088;SDS011;57635;49.194;12.104;2023-05-17T04:45:11;3.23;;;2.07;;
8088;SDS011;57635;49.194;12.104;2023-05-17T04:47:40;5.70;;;3.03;;
8088;SDS011;57635;49.194;12.104;2023-05-17T04:50:09;2.40;;;2.30;;
8088;SDS011;57635;49.194;12.104;2023-05-17T04:52:38;5.80;;;2.57;;
8088;SDS011;57635;49.194;12.104;2023-05-17T04:55:05;3.93;;;2.50;;
8088;SDS011;57635;49.194;12.104;2023-05-17T04:57:34;2.60;;;2.20;;
8088;SDS011;57635;49.194;12.104;2023-05-17T05:00:01;4.07;;;2.57;;
8088;SDS011;57635;49.194;12.104;2023-05-17T05:02:31;3.37;;;2.23;;
8088;SDS011;57635;49.194;12.104;2023-05-17T05:04:59;4.90;;;2.53;;
8088;SDS011;57635;49.194;12.104;2023-05-17T05:07:27;4.20;;;2.70;;
8088;SDS011;57635;49.194;12.104;2023-05-17T05:09:56;4.70;;;2.47;;
8088;SDS011;57635;49.194;12.104;2023-05-17T05:12:24;5.37;;;2.77;;
8088;SDS011;57635;49.194;12.104;2023-05-17T05:14:51;7.87;;;2.57;;
8088;SDS011;57635;49.194;12.104;2023-05-17T05:17:20;3.10;;;2.80;;
8088;SDS011;57635;49.194;12.104;2023-05-17T05:19:47;6.13;;;2.43;;
8088;SDS011;57635;49.194;12.104;2023-05-17T05:22:15;3.97;;;3.00;;
8088;SDS011;57635;49.194;12.104;2023-05-17T05:24:43;5.57;;;3.00;;
8088;SDS011;57635;49.194;12.104;2023-05-17T05:27:12;5.47;;;3.03;;
8088;SDS011;57635;49.194;12.104;2023-05-17T05:29:39;4.90;;;2.80;;
8088;SDS011;57635;49.194;12.104;2023-05-17T05:32:08;4.23;;;3.23;;
8088;SDS011;57635;49.194;12.104;2023-05-17T05:34:37;4.63;;;3.13;;
8088;SDS011;57635;49.194;12.104;2023-05-17T05:37:04;3.23;;;2.80;;
8088;SDS011;57635;49.194;12.104;2023-05-17T05:39:32;6.37;;;3.17;;
8088;SDS011;57635;49.194;12.104;2023-05-17T05:42:02;4.00;;;3.50;;
8088;SDS011;57635;49.194;12.104;2023-05-17T05:44:31;3.10;;;2.80;;
8088;SDS011;57635;49.194;12.104;2023-05-17T05:46:59;3.40;;;2.80;;
8088;SDS011;57635;49.194;12.104;2023-05-17T05:49:26;3.70;;;2.97;;
8088;SDS011;57635;49.194;12.104;2023-05-17T05:51:54;4.70;;;2.90;;
8088;SDS011;57635;49.194;12.104;2023-05-17T05:54:22;3.83;;;3.17;;
8088;SDS011;57635;49.194;12.104;2023-05-17T05:56:50;4.37;;;3.90;;
8088;SDS011;57635;49.194;12.104;2023-05-17T05:59:17;7.47;;;3.13;;
8088;SDS011;57635;49.194;12.104;2023-05-17T06:01:46;6.90;;;3.00;;
8088;SDS011;57635;49.194;12.104;2023-05-17T06:04:14;5.37;;;3.50;;
8088;SDS011;57635;49.194;12.104;2023-05-17T06:06:41;5.27;;;2.87;;
8088;SDS011;57635;49.194;12.104;2023-05-17T06:09:09;3.07;;;2.83;;
8088;SDS011;57635;49.194;12.104;2023-05-17T06:11:37;4.40;;;3.27;;
8088;SDS011;57635;49.194;12.104;2023-05-17T06:14:05;4.00;;;3.23;;
8088;SDS011;57635;49.194;12.104;2023-05-17T06:16:33;7.17;;;3.87;;
8088;SDS011;57635;49.194;12.104;2023-05-17T06:19:02;4.73;;;3.00;;
8088;SDS011;57635;49.194;12.104;2023-05-17T06:21:30;5.00;;;3.70;;
8088;SDS011;57635;49.194;12.104;2023-05-17T06:23:58;5.37;;;3.80;;
8088;SDS011;57635;49.194;12.104;2023-05-17T06:26:28;4.90;;;3.87;;
8088;SDS011;57635;49.194;12.104;2023-05-17T06:28:56;5.30;;;3.90;;
8088;SDS011;57635;49.194;12.104;2023-05-17T06:31:24;7.07;;;3.60;;
8088;SDS011;57635;49.194;12.104;2023-05-17T06:33:52;5.27;;;3.87;;
8088;SDS011;57635;49.194;12.104;2023-05-17T06:36:21;6.70;;;3.93;;
8088;SDS011;57635;49.194;12.104;2023-05-17T06:38:50;5.57;;;4.07;;
8088;SDS011;57635;49.194;12.104;2023-05-17T06:41:18;6.00;;;4.40;;
8088;SDS011;57635;49.194;12.104;2023-05-17T06:43:46;6.03;;;4.30;;
8088;SDS011;57635;49.194;12.104;2023-05-17T06:46:13;4.77;;;4.00;;
8088;SDS011;57635;49.194;12.104;2023-05-17T06:48:41;4.30;;;3.90;;
8088;SDS011;57635;49.194;12.104;2023-05-17T06:51:10;4.43;;;3.93;;
8088;SDS011;57635;49.194;12.104;2023-05-17T06:53:39;5.33;;;4.60;;
8088;SDS011;57635;49.194;12.104;2023-05-17T06:56:06;7.70;;;4.37;;
8088;SDS011;57635;49.194;12.104;2023-05-17T06:58:34;9.47;;;4.30;;
8088;SDS011;57635;49.194;12.104;2023-05-17T07:01:02;8.07;;;4.50;;
8088;SDS011;57635;49.194;12.104;2023-05-17T07:03:30;6.73;;;4.63;;
8088;SDS011;57635;49.194;12.104;2023-05-17T07:05:57;4.37;;;3.87;;
8088;SDS011;57635;49.194;12.104;2023-05-17T07:08:26;8.33;;;4.13;;
8088;SDS011;57635;49.194;12.104;2023-05-17T07:10:55;4.33;;;3.90;;
8088;SDS011;57635;49.194;12.104;2023-05-17T07:13:22;7.47;;;4.93;;
8088;SDS011;57635;49.194;12.104;2023-05-17T07:15:50;4.97;;;4.40;;
8088;SDS011;57635;49.194;12.104;2023-05-17T07:18:18;9.00;;;4.20;;
8088;SDS011;57635;49.194;12.104;2023-05-17T07:20:45;5.93;;;3.87;;
8088;SDS011;57635;49.194;12.104;2023-05-17T07:23:13;7.30;;;4.50;;
8088;SDS011;57635;49.194;12.104;2023-05-17T07:25:41;6.43;;;4.33;;
8088;SDS011;57635;49.194;12.104;2023-05-17T07:28:10;6.07;;;4.40;;
8088;SDS011;57635;49.194;12.104;2023-05-17T07:30:37;5.57;;;4.43;;
8088;SDS011;57635;49.194;12.104;2023-05-17T07:33:05;5.40;;;4.57;;
8088;SDS011;57635;49.194;12.104;2023-05-17T07:35:33;5.10;;;4.43;;
8088;SDS011;57635;49.194;12.104;2023-05-17T07:38:00;7.37;;;5.53;;
8088;SDS011;57635;49.194;12.104;2023-05-17T07:40:29;4.53;;;4.10;;
8088;SDS011;57635;49.194;12.104;2023-05-17T07:42:57;6.30;;;4.47;;
8088;SDS011;57635;49.194;12.104;2023-05-17T07:45:26;4.80;;;4.30;;
8088;SDS011;57635;49.194;12.104;2023-05-17T07:47:55;8.60;;;4.47;;
8088;SDS011;57635;49.194;12.104;2023-05-17T07:50:23;5.53;;;4.30;;
8088;SDS011;57635;49.194;12.104;2023-05-17T07:52:51;6.70;;;4.50;;
8088;SDS011;57635;49.194;12.104;2023-05-17T07:55:18;4.50;;;3.60;;
8088;SDS011;57635;49.194;12.104;2023-05-17T07:57:46;6.67;;;4.60;;
8088;SDS011;57635;49.194;12.104;2023-05-17T08:00:14;5.43;;;4.93;;
8088;SDS011;57635;49.194;12.104;2023-05-17T08:02:45;7.30;;;4.30;;
8088;SDS011;57635;49.194;12.104;2023-05-17T08:05:13;5.53;;;4.23;;
8088;SDS011;57635;49.194;12.104;2023-05-17T08:07:41;6.73;;;4.30;;
8088;SDS011;57635;49.194;12.104;2023-05-17T08:10:09;8.03;;;4.67;;
8088;SDS011;57635;49.194;12.104;2023-05-17T08:12:37;4.80;;;4.40;;
8088;SDS011;57635;49.194;12.104;2023-05-17T08:15:05;4.67;;;4.20;;
8088;SDS011;57635;49.194;12.104;2023-05-17T08:17:33;5.43;;;4.37;;
8088;SDS011;57635;49.194;12.104;2023-05-17T08:20:03;5.90;;;4.17;;
8088;SDS011;57635;49.194;12.104;2023-05-17T08:22:31;4.93;;;4.03;;
8088;SDS011;57635;49.194;12.104;2023-05-17T08:24:59;4.90;;;3.77;;
8088;SDS011;57635;49.194;12.104;2023-05-17T08:27:26;5.13;;;4.73;;
8088;SDS011;57635;49.194;12.104;2023-05-17T08:29:56;4.43;;;4.03;;
8088;SDS011;57635;49.194;12.104;2023-05-17T08:32:24;4.50;;;3.80;;
8088;SDS011;57635;49.194;12.104;2023-05-17T08:34:52;7.13;;;5.17;;
8088;SDS011;57635;49.194;12.104;2023-05-17T08:37:22;4.40;;;4.10;;
8088;SDS011;57635;49.194;12.104;2023-05-17T08:39:50;6.47;;;5.80;;
8088;SDS011;57635;49.194;12.104;2023-05-17T08:42:19;4.93;;;4.53;;
8088;SDS011;57635;49.194;12.104;2023-05-17T08:44:49;5.23;;;4.73;;
8088;SDS011;57635;49.194;12.104;2023-05-17T08:47:18;6.03;;;4.17;;
8088;SDS011;57635;49.194;12.104;2023-05-17T08:49:55;8.47;;;5.10;;
8088;SDS011;57635;49.194;12.104;2023-05-17T08:52:29;8.03;;;4.83;;
8088;SDS011;57635;49.194;12.104;2023-05-17T08:54:57;7.53;;;6.27;;
8088;SDS011;57635;49.194;12.104;2023-05-17T08:57:26;9.93;;;7.30;;
8088;SDS011;57635;49.194;12.104;2023-05-17T08:59:55;6.70;;;6.00;;
8088;SDS011;57635;49.194;12.104;2023-05-17T09:02:25;10.80;;;7.17;;
8088;SDS011;57635;49.194;12.104;2023-05-17T09:04:53;7.80;;;5.37;;
8088;SDS011;57635;49.194;12.104;2023-05-17T09:07:21;5.30;;;4.73;;
8088;SDS011;57635;49.194;12.104;2023-05-17T09:09:51;6.53;;;5.10;;
8088;SDS011;57635;49.194;12.104;2023-05-17T09:12:19;6.33;;;4.53;;
8088;SDS011;57635;49.194;12.104;2023-05-17T09:14:50;7.10;;;4.23;;
8088;SDS011;57635;49.194;12.104;2023-05-17T09:17:19;5.00;;;4.50;;
8088;SDS011;57635;49.194;12.104;2023-05-17T09:19:47;5.33;;;4.10;;
8088;SDS011;57635;49.194;12.104;2023-05-17T09:22:16;4.63;;;4.23;;
8088;SDS011;57635;49.194;12.104;2023-05-17T09:24:44;6.30;;;5.10;;
8088;SDS011;57635;49.194;12.104;2023-05-17T09:27:15;6.33;;;5.00;;
8088;SDS011;57635;49.194;12.104;2023-05-17T09:29:44;4.73;;;4.20;;
8088;SDS011;57635;49.194;12.104;2023-05-17T09:32:13;6.40;;;4.03;;
8088;SDS011;57635;49.194;12.104;2023-05-17T09:34:41;5.87;;;4.30;;
8088;SDS011;57635;49.194;12.104;2023-05-17T09:37:12;5.80;;;4.50;;
8088;SDS011;57635;49.194;12.104;2023-05-17T09:39:41;5.30;;;4.80;;
8088;SDS011;57635;49.194;12.104;2023-05-17T09:42:10;4.50;;;4.10;;
8088;SDS011;57635;49.194;12.104;2023-05-17T09:44:45;5.70;;;3.83;;
8088;SDS011;57635;49.194;12.104;2023-05-17T09:47:21;6.30;;;4.20;;
8088;SDS011;57635;49.194;12.104;2023-05-17T09:49:50;8.40;;;4.20;;
8088;SDS011;57635;49.194;12.104;2023-05-17T09:52:18;4.83;;;4.40;;
8088;SDS011;57635;49.194;12.104;2023-05-17T09:54:53;7.60;;;4.60;;
8088;SDS011;57635;49.194;12.104;2023-05-17T09:57:21;5.40;;;3.90;;
8088;SDS011;57635;49.194;12.104;2023-05-17T09:59:50;5.43;;;4.30;;
8088;SDS011;57635;49.194;12.104;2023-05-17T10:02:25;4.13;;;3.73;;
8088;SDS011;57635;49.194;12.104;2023-05-17T10:04:55;4.30;;;3.90;;
8088;SDS011;57635;49.194;12.104;2023-05-17T10:07:24;5.17;;;3.97;;
8088;SDS011;57635;49.194;12.104;2023-05-17T10:09:53;6.63;;;3.63;;
8088;SDS011;57635;49.194;12.104;2023-05-17T10:12:22;7.07;;;4.10;;
8088;SDS011;57635;49.194;12.104;2023-05-17T10:14:52;7.83;;;4.47;;
8088;SDS011;57635;49.194;12.104;2023-05-17T10:17:22;4.63;;;4.23;;
8088;SDS011;57635;49.194;12.104;2023-05-17T10:19:50;5.27;;;4.77;;
8088;SDS011;57635;49.194;12.104;2023-05-17T10:22:19;5.27;;;4.17;;
8088;SDS011;57635;49.194;12.104;2023-05-17T10:24:49;5.03;;;4.13;;
8088;SDS011;57635;49.194;12.104;2023-05-17T10:27:17;6.07;;;4.73;;
8088;SDS011;57635;49.194;12.104;2023-05-17T10:29:45;5.03;;;4.40;;
8088;SDS011;57635;49.194;12.104;2023-05-17T10:32:18;5.87;;;4.70;;
8088;SDS011;57635;49.194;12.104;2023-05-17T10:34:48;4.23;;;3.80;;
8088;SDS011;57635;49.194;12.104;2023-05-17T10:37:36;5.90;;;3.90;;
8088;SDS011;57635;49.194;12.104;2023-05-17T10:40:04;4.63;;;4.23;;
8088;SDS011;57635;49.194;12.104;2023-05-17T10:42:38;4.10;;;3.80;;
8088;SDS011;57635;49.194;12.104;2023-05-17T10:45:07;4.07;;;3.67;;
8088;SDS011;57635;49.194;12.104;2023-05-17T10:47:38;7.80;;;4.20;;
8088;SDS011;57635;49.194;12.104;2023-05-17T10:50:08;4.97;;;3.97;;
8088;SDS011;57635;49.194;12.104;2023-05-17T10:52:39;5.77;;;4.20;;
8088;SDS011;57635;49.194;12.104;2023-05-17T10:55:12;6.10;;;4.07;;
8088;SDS011;57635;49.194;12.104;2023-05-17T10:57:40;8.83;;;4.97;;
8088;SDS011;57635;49.194;12.104;2023-05-17T11:00:18;6.00;;;4.20;;
8088;SDS011;57635;49.194;12.104;2023-05-17T11:02:48;7.70;;;4.30;;
8088;SDS011;57635;49.194;12.104;2023-05-17T11:05:22;4.70;;;4.27;;
8088;SDS011;57635;49.194;12.104;2023-05-17T11:07:50;6.47;;;4.50;;
8088;SDS011;57635;49.194;12.104;2023-05-17T11:10:18;4.83;;;4.27;;
8088;SDS011;57635;49.194;12.104;2023-05-17T11:12:46;6.47;;;4.00;;
8088;SDS011;57635;49.194;12.104;2023-05-17T11:15:22;4.70;;;4.30;;
8088;SDS011;57635;49.194;12.104;2023-05-17T11:17:51;4.53;;;4.17;;
8088;SDS011;57635;49.194;12.104;2023-05-17T11:20:29;6.73;;;4.10;;
8088;SDS011;57635;49.194;12.104;2023-05-17T11:22:59;5.43;;;4.50;;
8088;SDS011;57635;49.194;12.104;2023-05-17T11:25:28;4.23;;;3.60;;
8088;SDS011;57635;49.194;12.104;2023-05-17T11:27:58;5.73;;;3.97;;
8088;SDS011;57635;49.194;12.104;2023-05-17T11:30:26;5.53;;;3.97;;
8088;SDS011;57635;49.194;12.104;2023-05-17T11:32:58;4.43;;;4.00;;
8088;SDS011;57635;49.194;12.104;2023-05-17T11:35:27;4.00;;;3.60;;
8088;SDS011;57635;49.194;12.104;2023-05-17T11:38:11;4.80;;;3.70;;
8088;SDS011;57635;49.194;12.104;2023-05-17T11:40:41;6.10;;;4.00;;
8088;SDS011;57635;49.194;12.104;2023-05-17T11:43:09;5.70;;;3.77;;
8088;SDS011;57635;49.194;12.104;2023-05-17T11:45:39;5.30;;;4.47;;
8088;SDS011;57635;49.194;12.104;2023-05-17T11:48:09;5.60;;;4.30;;
8088;SDS011;57635;49.194;12.104;2023-05-17T11:50:38;5.80;;;4.10;;
8088;SDS011;57635;49.194;12.104;2023-05-17T11:53:06;5.83;;;3.80;;
8088;SDS011;57635;49.194;12.104;2023-05-17T11:55:36;5.10;;;3.67;;
8088;SDS011;57635;49.194;12.104;2023-05-17T11:58:06;3.27;;;3.07;;
8088;SDS011;57635;49.194;12.104;2023-05-17T12:00:34;4.23;;;3.50;;
8088;SDS011;57635;49.194;12.104;2023-05-17T12:03:19;5.47;;;4.03;;
8088;SDS011;57635;49.194;12.104;2023-05-17T12:05:48;4.60;;;3.50;;
8088;SDS011;57635;49.194;12.104;2023-05-17T12:08:16;3.97;;;3.60;;
8088;SDS011;57635;49.194;12.104;2023-05-17T12:10:46;5.83;;;4.00;;
8088;SDS011;57635;49.194;12.104;2023-05-17T12:13:14;4.40;;;3.40;;
8088;SDS011;57635;49.194;12.104;2023-05-17T12:15:43;4.87;;;3.80;;
8088;SDS011;57635;49.194;12.104;2023-05-17T12:18:12;4.37;;;3.37;;
8088;SDS011;57635;49.194;12.104;2023-05-17T12:20:53;3.33;;;2.90;;
8088;SDS011;57635;49.194;12.104;2023-05-17T12:23:27;5.53;;;3.57;;
8088;SDS011;57635;49.194;12.104;2023-05-17T12:26:00;3.70;;;3.50;;
8088;SDS011;57635;49.194;12.104;2023-05-17T12:28:32;4.33;;;3.60;;
8088;SDS011;57635;49.194;12.104;2023-05-17T12:31:00;3.40;;;3.10;;
8088;SDS011;57635;49.194;12.104;2023-05-17T12:33:29;4.17;;;3.77;;
8088;SDS011;57635;49.194;12.104;2023-05-17T12:36:00;4.20;;;3.80;;
8088;SDS011;57635;49.194;12.104;2023-05-17T12:38:28;3.20;;;2.90;;
8088;SDS011;57635;49.194;12.104;2023-05-17T12:40:59;3.30;;;2.83;;
8088;SDS011;57635;49.194;12.104;2023-05-17T12:43:27;4.63;;;3.37;;
8088;SDS011;57635;49.194;12.104;2023-05-17T12:46:04;5.20;;;3.83;;
8088;SDS011;57635;49.194;12.104;2023-05-17T12:48:32;4.20;;;3.80;;
8088;SDS011;57635;49.194;12.104;2023-05-17T12:51:06;4.27;;;3.87;;
8088;SDS011;57635;49.194;12.104;2023-05-17T12:53:37;3.80;;;3.07;;
8088;SDS011;57635;49.194;12.104;2023-05-17T12:56:05;3.90;;;3.60;;
8088;SDS011;57635;49.194;12.104;2023-05-17T12:58:34;4.10;;;3.20;;
8088;SDS011;57635;49.194;12.104;2023-05-17T13:01:02;4.97;;;3.83;;
8088;SDS011;57635;49.194;12.104;2023-05-17T13:03:32;4.27;;;3.40;;
8088;SDS011;57635;49.194;12.104;2023-05-17T13:06:01;3.37;;;3.07;;
8088;SDS011;57635;49.194;12.104;2023-05-17T13:08:32;3.87;;;2.93;;
8088;SDS011;57635;49.194;12.104;2023-05-17T13:11:06;3.27;;;2.97;;
8088;SDS011;57635;49.194;12.104;2023-05-17T13:13:35;4.03;;;3.70;;
8088;SDS011;57635;49.194;12.104;2023-05-17T13:16:03;3.43;;;3.13;;
8088;SDS011;57635;49.194;12.104;2023-05-17T13:18:45;6.03;;;3.53;;
8088;SDS011;57635;49.194;12.104;2023-05-17T13:21:13;3.30;;;3.10;;
8088;SDS011;57635;49.194;12.104;2023-05-17T13:23:42;3.23;;;3.00;;
8088;SDS011;57635;49.194;12.104;2023-05-17T13:26:10;3.63;;;3.33;;
8088;SDS011;57635;49.194;12.104;2023-05-17T13:28:39;3.33;;;3.10;;
8088;SDS011;57635;49.194;12.104;2023-05-17T13:31:06;3.57;;;3.27;;
8088;SDS011;57635;49.194;12.104;2023-05-17T13:33:34;3.70;;;3.37;;
8088;SDS011;57635;49.194;12.104;2023-05-17T13:36:02;4.87;;;3.47;;
8088;SDS011;57635;49.194;12.104;2023-05-17T13:38:30;5.30;;;4.00;;
8088;SDS011;57635;49.194;12.104;2023-05-17T13:40:59;4.67;;;3.83;;
8088;SDS011;57635;49.194;12.104;2023-05-17T13:43:26;4.23;;;3.83;;
8088;SDS011;57635;49.194;12.104;2023-05-17T13:45:54;3.73;;;3.43;;
8088;SDS011;57635;49.194;12.104;2023-05-17T13:48:24;4.27;;;3.60;;
8088;SDS011;57635;49.194;12.104;2023-05-17T13:50:51;3.80;;;3.50;;
8088;SDS011;57635;49.194;12.104;2023-05-17T13:53:19;4.97;;;3.47;;
8088;SDS011;57635;49.194;12.104;2023-05-17T13:55:47;4.83;;;4.00;;
8088;SDS011;57635;49.194;12.104;2023-05-17T13:58:16;4.27;;;3.40;;
8088;SDS011;57635;49.194;12.104;2023-05-17T14:00:44;3.80;;;3.33;;
8088;SDS011;57635;49.194;12.104;2023-05-17T14:03:12;3.57;;;3.27;;
8088;SDS011;57635;49.194;12.104;2023-05-17T14:05:40;3.90;;;3.60;;
8088;SDS011;57635;49.194;12.104;2023-05-17T14:08:07;4.33;;;3.83;;
8088;SDS011;57635;49.194;12.104;2023-05-17T14:10:35;3.93;;;3.50;;
8088;SDS011;57635;49.194;12.104;2023-05-17T14:13:02;5.53;;;3.63;;
8088;SDS011;57635;49.194;12.104;2023-05-17T14:15:31;3.90;;;3.50;;
8088;SDS011;57635;49.194;12.104;2023-05-17T14:18:03;3.43;;;3.10;;
8088;SDS011;57635;49.194;12.104;2023-05-17T14:20:31;3.67;;;3.17;;
8088;SDS011;57635;49.194;12.104;2023-05-17T14:22:59;3.30;;;3.10;;
8088;SDS011;57635;49.194;12.104;2023-05-17T14:25:27;3.80;;;3.50;;
8088;SDS011;57635;49.194;12.104;2023-05-17T14:27:55;3.90;;;2.93;;
8088;SDS011;57635;49.194;12.104;2023-05-17T14:30:23;3.80;;;3.50;;
8088;SDS011;57635;49.194;12.104;2023-05-17T14:32:52;3.93;;;3.13;;
8088;SDS011;57635;49.194;12.104;2023-05-17T14:35:19;4.37;;;3.57;;
8088;SDS011;57635;49.194;12.104;2023-05-17T14:37:47;4.03;;;3.67;;
8088;SDS011;57635;49.194;12.104;2023-05-17T14:40:15;5.63;;;3.60;;
8088;SDS011;57635;49.194;12.104;2023-05-17T14:42:42;3.53;;;3.20;;
8088;SDS011;57635;49.194;12.104;2023-05-17T14:45:10;3.60;;;3.13;;
8088;SDS011;57635;49.194;12.104;2023-05-17T14:47:37;3.20;;;3.00;;
8088;SDS011;57635;49.194;12.104;2023-05-17T14:50:07;5.20;;;3.67;;
8088;SDS011;57635;49.194;12.104;2023-05-17T14:52:35;5.63;;;3.90;;
8088;SDS011;57635;49.194;12.104;2023-05-17T14:55:03;4.63;;;4.03;;
8088;SDS011;57635;49.194;12.104;2023-05-17T14:57:32;4.30;;;3.90;;